sensor_id;sensor_type;location;lat;lon;timestamp;P1;durP1;ratioP1;P2;durP2;ratioP2
13571;SDS011;6857;53.484;10.216;2022-09-28T00:01:20;6.97;;;5.33;;
13571;SDS011;6857;53.484;10.216;2022-09-28T00:03:48;8.17;;;5.10;;
13571;SDS011;6857;53.484;10.216;2022-09-28T00:06:15;6.50;;;4.60;;
13571;SDS011;6857;53.484;10.216;2022-09-28T00:08:44;6.20;;;4.60;;
13571;SDS011;6857;53.484;10.216;2022-09-28T00:11:11;5.70;;;4.60;;
13571;SDS011;6857;53.484;10.216;2022-09-28T00:13:39;5.97;;;4.80;;
13571;SDS011;6857;53.484;10.216;2022-09-28T00:16:09;5.40;;;4.77;;
13571;SDS011;6857;53.484;10.216;2022-09-28T00:18:36;5.10;;;4.27;;
13571;SDS011;6857;53.484;10.216;2022-09-28T00:21:05;4.83;;;3.90;;
13571;SDS011;6857;53.484;10.216;2022-09-28T00:23:33;6.50;;;4.40;;
13571;SDS011;6857;53.484;10.216;2022-09-28T00:26:03;4.50;;;3.73;;
13571;SDS011;6857;53.484;10.216;2022-09-28T00:28:29;4.30;;;3.67;;
13571;SDS011;6857;53.484;10.216;2022-09-28T00:30:56;5.90;;;4.10;;
13571;SDS011;6857;53.484;10.216;2022-09-28T00:33:22;6.77;;;4.27;;
13571;SDS011;6857;53.484;10.216;2022-09-28T00:35:55;4.80;;;3.57;;
13571;SDS011;6857;53.484;10.216;2022-09-28T00:38:24;4.30;;;3.60;;
13571;SDS011;6857;53.484;10.216;2022-09-28T00:40:51;5.27;;;3.57;;
13571;SDS011;6857;53.484;10.216;2022-09-28T00:43:18;5.70;;;3.90;;
13571;SDS011;6857;53.484;10.216;2022-09-28T00:45:44;4.90;;;3.60;;
13571;SDS011;6857;53.484;10.216;2022-09-28T00:48:21;4.30;;;3.60;;
13571;SDS011;6857;53.484;10.216;2022-09-28T00:50:47;5.43;;;3.57;;
13571;SDS011;6857;53.484;10.216;2022-09-28T00:53:18;5.50;;;3.70;;
13571;SDS011;6857;53.484;10.216;2022-09-28T00:55:53;5.30;;;3.87;;
13571;SDS011;6857;53.484;10.216;2022-09-28T00:58:22;5.67;;;3.93;;
13571;SDS011;6857;53.484;10.216;2022-09-28T01:00:53;6.20;;;3.60;;
13571;SDS011;6857;53.484;10.216;2022-09-28T01:03:21;4.47;;;3.80;;
13571;SDS011;6857;53.484;10.216;2022-09-28T01:05:47;4.70;;;3.73;;
13571;SDS011;6857;53.484;10.216;2022-09-28T01:08:14;9.00;;;4.50;;
13571;SDS011;6857;53.484;10.216;2022-09-28T01:10:41;5.13;;;4.03;;
13571;SDS011;6857;53.484;10.216;2022-09-28T01:13:07;10.40;;;4.00;;
13571;SDS011;6857;53.484;10.216;2022-09-28T01:15:36;5.20;;;4.13;;
13571;SDS011;6857;53.484;10.216;2022-09-28T01:18:12;4.60;;;3.80;;
13571;SDS011;6857;53.484;10.216;2022-09-28T01:21:00;6.57;;;3.97;;
13571;SDS011;6857;53.484;10.216;2022-09-28T01:26:40;5.03;;;3.87;;
13571;SDS011;6857;53.484;10.216;2022-09-28T01:31:50;5.30;;;4.10;;
13571;SDS011;6857;53.484;10.216;2022-09-28T01:34:24;9.77;;;5.10;;
13571;SDS011;6857;53.484;10.216;2022-09-28T01:37:08;8.60;;;4.60;;
13571;SDS011;6857;53.484;10.216;2022-09-28T01:39:36;6.67;;;4.90;;
13571;SDS011;6857;53.484;10.216;2022-09-28T01:42:14;7.03;;;5.40;;
13571;SDS011;6857;53.484;10.216;2022-09-28T01:44:44;7.73;;;5.33;;
13571;SDS011;6857;53.484;10.216;2022-09-28T01:47:14;12.27;;;5.77;;
13571;SDS011;6857;53.484;10.216;2022-09-28T01:50:01;6.80;;;5.30;;
13571;SDS011;6857;53.484;10.216;2022-09-28T01:52:34;7.17;;;5.40;;
13571;SDS011;6857;53.484;10.216;2022-09-28T01:55:08;7.83;;;5.90;;
13571;SDS011;6857;53.484;10.216;2022-09-28T01:57:49;7.07;;;5.90;;
13571;SDS011;6857;53.484;10.216;2022-09-28T02:00:19;7.57;;;6.13;;
13571;SDS011;6857;53.484;10.216;2022-09-28T02:02:49;7.03;;;5.40;;
13571;SDS011;6857;53.484;10.216;2022-09-28T02:05:36;10.20;;;6.03;;
13571;SDS011;6857;53.484;10.216;2022-09-28T02:10:56;6.97;;;5.77;;
13571;SDS011;6857;53.484;10.216;2022-09-28T02:13:31;7.43;;;5.53;;
13571;SDS011;6857;53.484;10.216;2022-09-28T02:16:05;10.87;;;6.90;;
13571;SDS011;6857;53.484;10.216;2022-09-28T02:18:45;11.70;;;6.10;;
13571;SDS011;6857;53.484;10.216;2022-09-28T02:21:13;7.80;;;6.10;;
13571;SDS011;6857;53.484;10.216;2022-09-28T02:23:50;9.17;;;6.30;;
13571;SDS011;6857;53.484;10.216;2022-09-28T02:26:21;8.33;;;6.63;;
13571;SDS011;6857;53.484;10.216;2022-09-28T02:28:51;9.00;;;6.87;;
13571;SDS011;6857;53.484;10.216;2022-09-28T02:31:17;8.10;;;6.43;;
13571;SDS011;6857;53.484;10.216;2022-09-28T02:33:43;9.83;;;6.60;;
13571;SDS011;6857;53.484;10.216;2022-09-28T02:36:09;7.37;;;6.10;;
13571;SDS011;6857;53.484;10.216;2022-09-28T02:38:36;8.03;;;6.43;;
13571;SDS011;6857;53.484;10.216;2022-09-28T02:41:13;10.87;;;6.93;;
13571;SDS011;6857;53.484;10.216;2022-09-28T02:46:52;8.23;;;6.27;;
13571;SDS011;6857;53.484;10.216;2022-09-28T02:54:47;9.30;;;6.87;;
13571;SDS011;6857;53.484;10.216;2022-09-28T03:00:11;9.27;;;7.37;;
13571;SDS011;6857;53.484;10.216;2022-09-28T03:05:24;11.37;;;7.87;;
13571;SDS011;6857;53.484;10.216;2022-09-28T03:08:05;12.43;;;8.30;;
13571;SDS011;6857;53.484;10.216;2022-09-28T03:13:21;11.23;;;8.27;;
13571;SDS011;6857;53.484;10.216;2022-09-28T03:15:47;11.90;;;8.20;;
13571;SDS011;6857;53.484;10.216;2022-09-28T03:18:13;12.67;;;8.23;;
13571;SDS011;6857;53.484;10.216;2022-09-28T03:20:38;10.17;;;8.10;;
13571;SDS011;6857;53.484;10.216;2022-09-28T03:23:04;15.20;;;8.10;;
13571;SDS011;6857;53.484;10.216;2022-09-28T03:25:29;12.27;;;8.23;;
13571;SDS011;6857;53.484;10.216;2022-09-28T03:27:55;11.60;;;8.20;;
13571;SDS011;6857;53.484;10.216;2022-09-28T03:30:21;14.27;;;9.73;;
13571;SDS011;6857;53.484;10.216;2022-09-28T03:32:46;12.07;;;8.40;;
13571;SDS011;6857;53.484;10.216;2022-09-28T03:35:20;12.20;;;8.37;;
13571;SDS011;6857;53.484;10.216;2022-09-28T03:37:45;13.07;;;8.60;;
13571;SDS011;6857;53.484;10.216;2022-09-28T03:40:11;14.90;;;9.80;;
13571;SDS011;6857;53.484;10.216;2022-09-28T03:42:36;18.30;;;9.13;;
13571;SDS011;6857;53.484;10.216;2022-09-28T03:45:02;17.90;;;9.80;;
13571;SDS011;6857;53.484;10.216;2022-09-28T03:47:28;13.87;;;9.50;;
13571;SDS011;6857;53.484;10.216;2022-09-28T03:49:53;15.77;;;9.70;;
13571;SDS011;6857;53.484;10.216;2022-09-28T03:52:19;15.20;;;10.20;;
13571;SDS011;6857;53.484;10.216;2022-09-28T03:54:44;17.63;;;11.10;;
13571;SDS011;6857;53.484;10.216;2022-09-28T03:57:10;22.43;;;10.70;;
13571;SDS011;6857;53.484;10.216;2022-09-28T03:59:35;20.67;;;11.33;;
13571;SDS011;6857;53.484;10.216;2022-09-28T04:02:02;27.73;;;13.03;;
13571;SDS011;6857;53.484;10.216;2022-09-28T04:04:28;39.23;;;12.97;;
13571;SDS011;6857;53.484;10.216;2022-09-28T04:06:54;44.83;;;13.47;;
13571;SDS011;6857;53.484;10.216;2022-09-28T04:09:19;48.70;;;12.40;;
13571;SDS011;6857;53.484;10.216;2022-09-28T04:11:45;49.73;;;14.10;;
13571;SDS011;6857;53.484;10.216;2022-09-28T04:14:11;27.67;;;12.53;;
13571;SDS011;6857;53.484;10.216;2022-09-28T04:16:37;52.83;;;13.90;;
13571;SDS011;6857;53.484;10.216;2022-09-28T04:19:02;31.10;;;14.10;;
13571;SDS011;6857;53.484;10.216;2022-09-28T04:21:28;32.93;;;14.87;;
13571;SDS011;6857;53.484;10.216;2022-09-28T04:23:54;27.03;;;13.67;;
13571;SDS011;6857;53.484;10.216;2022-09-28T04:26:21;41.50;;;14.27;;
13571;SDS011;6857;53.484;10.216;2022-09-28T04:28:48;31.57;;;12.73;;
13571;SDS011;6857;53.484;10.216;2022-09-28T04:31:40;33.87;;;15.43;;
13571;SDS011;6857;53.484;10.216;2022-09-28T04:34:10;32.80;;;14.07;;
13571;SDS011;6857;53.484;10.216;2022-09-28T04:36:38;31.07;;;12.97;;
13571;SDS011;6857;53.484;10.216;2022-09-28T04:39:04;49.30;;;13.87;;
13571;SDS011;6857;53.484;10.216;2022-09-28T04:41:31;57.73;;;15.50;;
13571;SDS011;6857;53.484;10.216;2022-09-28T04:43:56;42.50;;;13.87;;
13571;SDS011;6857;53.484;10.216;2022-09-28T04:46:22;63.27;;;16.50;;
13571;SDS011;6857;53.484;10.216;2022-09-28T04:48:48;81.80;;;17.47;;
13571;SDS011;6857;53.484;10.216;2022-09-28T04:51:13;37.57;;;14.47;;
13571;SDS011;6857;53.484;10.216;2022-09-28T04:53:39;45.63;;;16.67;;
13571;SDS011;6857;53.484;10.216;2022-09-28T04:58:33;49.23;;;21.30;;
13571;SDS011;6857;53.484;10.216;2022-09-28T05:01:00;47.13;;;17.83;;
13571;SDS011;6857;53.484;10.216;2022-09-28T05:03:34;42.10;;;17.57;;
13571;SDS011;6857;53.484;10.216;2022-09-28T05:06:00;48.07;;;19.90;;
13571;SDS011;6857;53.484;10.216;2022-09-28T05:08:26;45.37;;;18.27;;
13571;SDS011;6857;53.484;10.216;2022-09-28T05:11:04;44.77;;;16.87;;
13571;SDS011;6857;53.484;10.216;2022-09-28T05:13:32;49.23;;;19.00;;
13571;SDS011;6857;53.484;10.216;2022-09-28T05:16:04;36.97;;;15.57;;
13571;SDS011;6857;53.484;10.216;2022-09-28T05:18:30;44.40;;;20.90;;
13571;SDS011;6857;53.484;10.216;2022-09-28T05:20:55;53.73;;;18.00;;
13571;SDS011;6857;53.484;10.216;2022-09-28T05:23:21;40.17;;;16.13;;
13571;SDS011;6857;53.484;10.216;2022-09-28T05:25:46;40.10;;;18.77;;
13571;SDS011;6857;53.484;10.216;2022-09-28T05:28:12;34.60;;;17.60;;
13571;SDS011;6857;53.484;10.216;2022-09-28T05:30:38;40.57;;;19.27;;
13571;SDS011;6857;53.484;10.216;2022-09-28T05:33:03;52.63;;;16.93;;
13571;SDS011;6857;53.484;10.216;2022-09-28T05:35:29;34.13;;;17.63;;
13571;SDS011;6857;53.484;10.216;2022-09-28T05:37:55;46.07;;;18.67;;
13571;SDS011;6857;53.484;10.216;2022-09-28T05:40:26;40.90;;;21.67;;
13571;SDS011;6857;53.484;10.216;2022-09-28T05:42:51;42.90;;;18.03;;
13571;SDS011;6857;53.484;10.216;2022-09-28T05:45:17;37.23;;;17.47;;
13571;SDS011;6857;53.484;10.216;2022-09-28T05:47:43;45.17;;;21.40;;
13571;SDS011;6857;53.484;10.216;2022-09-28T05:50:10;42.30;;;18.50;;
13571;SDS011;6857;53.484;10.216;2022-09-28T05:52:36;40.07;;;18.60;;
13571;SDS011;6857;53.484;10.216;2022-09-28T05:55:03;34.70;;;18.33;;
13571;SDS011;6857;53.484;10.216;2022-09-28T05:57:30;58.03;;;19.07;;
13571;SDS011;6857;53.484;10.216;2022-09-28T05:59:55;43.57;;;20.23;;
13571;SDS011;6857;53.484;10.216;2022-09-28T06:02:21;36.13;;;19.13;;
13571;SDS011;6857;53.484;10.216;2022-09-28T06:04:47;38.93;;;21.57;;
13571;SDS011;6857;53.484;10.216;2022-09-28T06:07:15;43.50;;;19.63;;
13571;SDS011;6857;53.484;10.216;2022-09-28T06:09:41;35.97;;;19.13;;
13571;SDS011;6857;53.484;10.216;2022-09-28T06:12:06;41.30;;;19.50;;
13571;SDS011;6857;53.484;10.216;2022-09-28T06:14:32;43.67;;;23.90;;
13571;SDS011;6857;53.484;10.216;2022-09-28T06:16:57;36.60;;;19.93;;
13571;SDS011;6857;53.484;10.216;2022-09-28T06:19:23;37.73;;;20.23;;
13571;SDS011;6857;53.484;10.216;2022-09-28T06:21:49;33.27;;;18.83;;
13571;SDS011;6857;53.484;10.216;2022-09-28T06:24:14;41.80;;;18.90;;
13571;SDS011;6857;53.484;10.216;2022-09-28T06:26:40;45.93;;;23.30;;
13571;SDS011;6857;53.484;10.216;2022-09-28T06:29:05;39.23;;;19.13;;
13571;SDS011;6857;53.484;10.216;2022-09-28T06:31:31;44.13;;;22.67;;
13571;SDS011;6857;53.484;10.216;2022-09-28T06:33:56;44.27;;;21.17;;
13571;SDS011;6857;53.484;10.216;2022-09-28T06:36:23;39.87;;;20.53;;
13571;SDS011;6857;53.484;10.216;2022-09-28T06:38:48;37.33;;;20.20;;
13571;SDS011;6857;53.484;10.216;2022-09-28T06:41:14;40.87;;;19.13;;
13571;SDS011;6857;53.484;10.216;2022-09-28T06:43:39;41.67;;;20.77;;
13571;SDS011;6857;53.484;10.216;2022-09-28T06:46:06;45.77;;;21.00;;
13571;SDS011;6857;53.484;10.216;2022-09-28T06:48:34;38.33;;;20.63;;
13571;SDS011;6857;53.484;10.216;2022-09-28T06:50:59;36.57;;;19.63;;
13571;SDS011;6857;53.484;10.216;2022-09-28T06:53:25;38.80;;;21.10;;
13571;SDS011;6857;53.484;10.216;2022-09-28T06:55:53;35.60;;;20.30;;
13571;SDS011;6857;53.484;10.216;2022-09-28T06:58:19;41.13;;;21.77;;
13571;SDS011;6857;53.484;10.216;2022-09-28T07:00:46;40.73;;;20.40;;
13571;SDS011;6857;53.484;10.216;2022-09-28T07:03:14;41.30;;;20.90;;
13571;SDS011;6857;53.484;10.216;2022-09-28T07:05:43;39.03;;;20.93;;
13571;SDS011;6857;53.484;10.216;2022-09-28T07:08:10;41.43;;;22.07;;
13571;SDS011;6857;53.484;10.216;2022-09-28T07:10:47;42.07;;;22.40;;
13571;SDS011;6857;53.484;10.216;2022-09-28T07:13:13;44.97;;;22.60;;
13571;SDS011;6857;53.484;10.216;2022-09-28T07:15:40;42.10;;;22.43;;
13571;SDS011;6857;53.484;10.216;2022-09-28T07:18:07;42.70;;;21.90;;
13571;SDS011;6857;53.484;10.216;2022-09-28T07:20:34;39.20;;;21.13;;
13571;SDS011;6857;53.484;10.216;2022-09-28T07:23:01;39.80;;;21.07;;
13571;SDS011;6857;53.484;10.216;2022-09-28T07:25:29;40.30;;;22.17;;
13571;SDS011;6857;53.484;10.216;2022-09-28T07:27:55;38.57;;;21.87;;
13571;SDS011;6857;53.484;10.216;2022-09-28T07:30:23;40.23;;;21.77;;
13571;SDS011;6857;53.484;10.216;2022-09-28T07:32:51;45.77;;;21.63;;
13571;SDS011;6857;53.484;10.216;2022-09-28T07:35:17;41.83;;;22.37;;
13571;SDS011;6857;53.484;10.216;2022-09-28T07:37:43;40.30;;;22.63;;
13571;SDS011;6857;53.484;10.216;2022-09-28T07:40:09;42.93;;;23.47;;
13571;SDS011;6857;53.484;10.216;2022-09-28T07:42:55;43.90;;;23.57;;
13571;SDS011;6857;53.484;10.216;2022-09-28T07:45:20;48.83;;;28.03;;
13571;SDS011;6857;53.484;10.216;2022-09-28T07:47:49;41.03;;;23.37;;
13571;SDS011;6857;53.484;10.216;2022-09-28T07:50:19;37.73;;;21.93;;
13571;SDS011;6857;53.484;10.216;2022-09-28T07:52:45;38.30;;;21.97;;
13571;SDS011;6857;53.484;10.216;2022-09-28T07:55:10;39.77;;;23.20;;
13571;SDS011;6857;53.484;10.216;2022-09-28T07:57:36;41.53;;;22.70;;
13571;SDS011;6857;53.484;10.216;2022-09-28T08:00:03;33.27;;;21.00;;
13571;SDS011;6857;53.484;10.216;2022-09-28T08:02:31;34.23;;;21.03;;
13571;SDS011;6857;53.484;10.216;2022-09-28T08:04:58;37.87;;;23.17;;
13571;SDS011;6857;53.484;10.216;2022-09-28T08:07:24;37.70;;;21.43;;
13571;SDS011;6857;53.484;10.216;2022-09-28T08:09:49;37.07;;;21.50;;
13571;SDS011;6857;53.484;10.216;2022-09-28T08:12:15;37.47;;;22.30;;
13571;SDS011;6857;53.484;10.216;2022-09-28T08:14:43;39.27;;;23.50;;
13571;SDS011;6857;53.484;10.216;2022-09-28T08:17:09;38.17;;;22.43;;
13571;SDS011;6857;53.484;10.216;2022-09-28T08:19:35;37.03;;;21.87;;
13571;SDS011;6857;53.484;10.216;2022-09-28T08:22:20;38.53;;;22.93;;
13571;SDS011;6857;53.484;10.216;2022-09-28T08:24:46;38.67;;;21.27;;
13571;SDS011;6857;53.484;10.216;2022-09-28T08:27:12;34.03;;;22.10;;
13571;SDS011;6857;53.484;10.216;2022-09-28T08:29:40;33.87;;;20.40;;
13571;SDS011;6857;53.484;10.216;2022-09-28T08:32:07;29.20;;;20.53;;
13571;SDS011;6857;53.484;10.216;2022-09-28T08:34:35;31.80;;;20.60;;
13571;SDS011;6857;53.484;10.216;2022-09-28T08:37:05;34.63;;;20.00;;
13571;SDS011;6857;53.484;10.216;2022-09-28T08:39:33;31.30;;;20.30;;
13571;SDS011;6857;53.484;10.216;2022-09-28T08:44:50;32.63;;;20.60;;
13571;SDS011;6857;53.484;10.216;2022-09-28T08:47:30;34.10;;;21.53;;
13571;SDS011;6857;53.484;10.216;2022-09-28T08:50:25;32.13;;;20.80;;
13571;SDS011;6857;53.484;10.216;2022-09-28T08:52:56;33.43;;;21.80;;
13571;SDS011;6857;53.484;10.216;2022-09-28T08:55:36;31.47;;;20.60;;
13571;SDS011;6857;53.484;10.216;2022-09-28T08:58:13;33.53;;;20.77;;
13571;SDS011;6857;53.484;10.216;2022-09-28T09:03:52;31.50;;;19.37;;
13571;SDS011;6857;53.484;10.216;2022-09-28T09:08:35;29.00;;;18.53;;
13571;SDS011;6857;53.484;10.216;2022-09-28T09:16:54;27.77;;;19.03;;
13571;SDS011;6857;53.484;10.216;2022-09-28T09:19:34;31.63;;;20.57;;
13571;SDS011;6857;53.484;10.216;2022-09-28T09:24:48;27.20;;;18.57;;
13571;SDS011;6857;53.484;10.216;2022-09-28T09:51:32;27.70;;;17.23;;
13571;SDS011;6857;53.484;10.216;2022-09-28T09:54:02;21.50;;;15.53;;
13571;SDS011;6857;53.484;10.216;2022-09-28T09:56:38;21.10;;;15.63;;
13571;SDS011;6857;53.484;10.216;2022-09-28T09:59:13;20.73;;;14.93;;
13571;SDS011;6857;53.484;10.216;2022-09-28T10:01:44;24.10;;;16.37;;
13571;SDS011;6857;53.484;10.216;2022-09-28T10:04:13;22.57;;;16.57;;
13571;SDS011;6857;53.484;10.216;2022-09-28T10:07:04;21.30;;;14.77;;
13571;SDS011;6857;53.484;10.216;2022-09-28T10:09:37;21.00;;;15.60;;
13571;SDS011;6857;53.484;10.216;2022-09-28T10:12:07;22.17;;;15.70;;
13571;SDS011;6857;53.484;10.216;2022-09-28T10:14:36;22.30;;;15.53;;
13571;SDS011;6857;53.484;10.216;2022-09-28T10:17:02;22.17;;;15.93;;
13571;SDS011;6857;53.484;10.216;2022-09-28T10:19:29;22.07;;;16.00;;
13571;SDS011;6857;53.484;10.216;2022-09-28T10:21:57;22.47;;;15.90;;
13571;SDS011;6857;53.484;10.216;2022-09-28T10:26:58;21.97;;;15.03;;
13571;SDS011;6857;53.484;10.216;2022-09-28T10:29:29;21.10;;;14.67;;
13571;SDS011;6857;53.484;10.216;2022-09-28T10:32:03;17.90;;;13.77;;
13571;SDS011;6857;53.484;10.216;2022-09-28T10:34:42;20.70;;;14.30;;
13571;SDS011;6857;53.484;10.216;2022-09-28T10:37:10;19.70;;;14.33;;
13571;SDS011;6857;53.484;10.216;2022-09-28T10:39:39;19.13;;;14.33;;
13571;SDS011;6857;53.484;10.216;2022-09-28T10:42:25;19.07;;;14.17;;
13571;SDS011;6857;53.484;10.216;2022-09-28T10:47:44;17.63;;;13.20;;
13571;SDS011;6857;53.484;10.216;2022-09-28T10:50:28;22.73;;;13.93;;
13571;SDS011;6857;53.484;10.216;2022-09-28T10:52:59;18.97;;;13.93;;
13571;SDS011;6857;53.484;10.216;2022-09-28T10:55:35;17.57;;;13.47;;
13571;SDS011;6857;53.484;10.216;2022-09-28T10:58:16;17.50;;;12.50;;
13571;SDS011;6857;53.484;10.216;2022-09-28T11:01:15;16.77;;;11.73;;
13571;SDS011;6857;53.484;10.216;2022-09-28T11:03:48;17.80;;;12.40;;
13571;SDS011;6857;53.484;10.216;2022-09-28T11:06:24;18.77;;;13.03;;
13571;SDS011;6857;53.484;10.216;2022-09-28T11:08:53;17.27;;;12.30;;
13571;SDS011;6857;53.484;10.216;2022-09-28T11:11:38;18.73;;;13.37;;
13571;SDS011;6857;53.484;10.216;2022-09-28T11:14:11;16.93;;;12.37;;
13571;SDS011;6857;53.484;10.216;2022-09-28T11:17:15;18.37;;;13.63;;
13571;SDS011;6857;53.484;10.216;2022-09-28T11:19:53;16.77;;;13.00;;
13571;SDS011;6857;53.484;10.216;2022-09-28T11:22:21;17.93;;;13.73;;
13571;SDS011;6857;53.484;10.216;2022-09-28T11:24:48;16.13;;;13.07;;
13571;SDS011;6857;53.484;10.216;2022-09-28T11:27:23;15.97;;;12.10;;
13571;SDS011;6857;53.484;10.216;2022-09-28T11:29:59;17.07;;;12.90;;
13571;SDS011;6857;53.484;10.216;2022-09-28T11:32:29;19.00;;;13.30;;
13571;SDS011;6857;53.484;10.216;2022-09-28T11:35:04;18.43;;;13.00;;
13571;SDS011;6857;53.484;10.216;2022-09-28T11:43:26;16.13;;;11.63;;
13571;SDS011;6857;53.484;10.216;2022-09-28T11:48:38;14.70;;;11.70;;
13571;SDS011;6857;53.484;10.216;2022-09-28T11:51:16;15.43;;;10.80;;
13571;SDS011;6857;53.484;10.216;2022-09-28T11:56:58;15.23;;;10.23;;
13571;SDS011;6857;53.484;10.216;2022-09-28T12:02:29;12.57;;;9.97;;
13571;SDS011;6857;53.484;10.216;2022-09-28T12:05:08;10.97;;;9.23;;
13571;SDS011;6857;53.484;10.216;2022-09-28T12:07:57;13.63;;;9.20;;
13571;SDS011;6857;53.484;10.216;2022-09-28T12:10:36;11.17;;;8.77;;
13571;SDS011;6857;53.484;10.216;2022-09-28T12:13:10;13.43;;;8.80;;
13571;SDS011;6857;53.484;10.216;2022-09-28T12:21:17;12.17;;;7.13;;
13571;SDS011;6857;53.484;10.216;2022-09-28T12:23:52;10.60;;;8.60;;
13571;SDS011;6857;53.484;10.216;2022-09-28T12:26:31;11.10;;;7.83;;
13571;SDS011;6857;53.484;10.216;2022-09-28T12:29:13;9.27;;;7.57;;
13571;SDS011;6857;53.484;10.216;2022-09-28T12:34:41;9.13;;;8.00;;
13571;SDS011;6857;53.484;10.216;2022-09-28T12:51:56;8.03;;;7.13;;
13571;SDS011;6857;53.484;10.216;2022-09-28T12:54:51;7.47;;;6.50;;
13571;SDS011;6857;53.484;10.216;2022-09-28T13:00:20;10.13;;;7.20;;
13571;SDS011;6857;53.484;10.216;2022-09-28T13:17:09;6.47;;;4.37;;
13571;SDS011;6857;53.484;10.216;2022-09-28T13:19:56;8.03;;;4.27;;
13571;SDS011;6857;53.484;10.216;2022-09-28T13:25:27;7.13;;;3.97;;
13571;SDS011;6857;53.484;10.216;2022-09-28T13:27:57;7.03;;;4.73;;
13571;SDS011;6857;53.484;10.216;2022-09-28T13:30:26;6.53;;;4.60;;
13571;SDS011;6857;53.484;10.216;2022-09-28T13:32:53;6.40;;;4.60;;
13571;SDS011;6857;53.484;10.216;2022-09-28T13:35:21;5.80;;;4.47;;
13571;SDS011;6857;53.484;10.216;2022-09-28T13:37:47;5.23;;;4.00;;
13571;SDS011;6857;53.484;10.216;2022-09-28T13:43:29;5.93;;;4.30;;
13571;SDS011;6857;53.484;10.216;2022-09-28T13:45:56;6.27;;;4.23;;
13571;SDS011;6857;53.484;10.216;2022-09-28T13:48:32;5.90;;;4.40;;
13571;SDS011;6857;53.484;10.216;2022-09-28T13:53:46;6.13;;;4.70;;
13571;SDS011;6857;53.484;10.216;2022-09-28T14:01:29;5.37;;;4.87;;
13571;SDS011;6857;53.484;10.216;2022-09-28T14:04:16;6.10;;;4.60;;
13571;SDS011;6857;53.484;10.216;2022-09-28T14:06:50;6.27;;;4.47;;
13571;SDS011;6857;53.484;10.216;2022-09-28T14:09:26;10.17;;;4.97;;
13571;SDS011;6857;53.484;10.216;2022-09-28T14:12:15;6.87;;;4.67;;
13571;SDS011;6857;53.484;10.216;2022-09-28T14:14:49;8.13;;;4.87;;
13571;SDS011;6857;53.484;10.216;2022-09-28T14:19:49;6.57;;;4.87;;
13571;SDS011;6857;53.484;10.216;2022-09-28T14:35:46;3.30;;;2.90;;
13571;SDS011;6857;53.484;10.216;2022-09-28T14:38:23;4.77;;;3.40;;
13571;SDS011;6857;53.484;10.216;2022-09-28T14:48:47;5.40;;;3.03;;
13571;SDS011;6857;53.484;10.216;2022-09-28T14:56:30;3.67;;;3.37;;
13571;SDS011;6857;53.484;10.216;2022-09-28T14:58:57;4.60;;;3.67;;
13571;SDS011;6857;53.484;10.216;2022-09-28T15:01:24;5.60;;;3.37;;
13571;SDS011;6857;53.484;10.216;2022-09-28T15:03:51;5.07;;;3.37;;
13571;SDS011;6857;53.484;10.216;2022-09-28T15:06:21;4.43;;;3.13;;
13571;SDS011;6857;53.484;10.216;2022-09-28T15:08:47;5.20;;;3.70;;
13571;SDS011;6857;53.484;10.216;2022-09-28T15:11:17;5.97;;;4.07;;
13571;SDS011;6857;53.484;10.216;2022-09-28T15:13:44;5.27;;;3.67;;
13571;SDS011;6857;53.484;10.216;2022-09-28T15:16:11;4.70;;;3.63;;
13571;SDS011;6857;53.484;10.216;2022-09-28T15:21:15;4.10;;;3.00;;
13571;SDS011;6857;53.484;10.216;2022-09-28T15:23:43;4.17;;;3.40;;
13571;SDS011;6857;53.484;10.216;2022-09-28T15:26:20;3.87;;;3.03;;
13571;SDS011;6857;53.484;10.216;2022-09-28T15:28:46;5.27;;;3.33;;
13571;SDS011;6857;53.484;10.216;2022-09-28T15:31:16;3.93;;;3.43;;
13571;SDS011;6857;53.484;10.216;2022-09-28T15:33:43;6.37;;;3.93;;
13571;SDS011;6857;53.484;10.216;2022-09-28T15:36:28;4.07;;;3.60;;
13571;SDS011;6857;53.484;10.216;2022-09-28T15:41:21;4.50;;;3.47;;
13571;SDS011;6857;53.484;10.216;2022-09-28T15:44:02;4.57;;;3.03;;
13571;SDS011;6857;53.484;10.216;2022-09-28T15:46:30;5.20;;;3.17;;
13571;SDS011;6857;53.484;10.216;2022-09-28T15:48:59;5.13;;;3.17;;
13571;SDS011;6857;53.484;10.216;2022-09-28T15:51:26;3.27;;;2.80;;
13571;SDS011;6857;53.484;10.216;2022-09-28T15:56:22;6.43;;;3.47;;
13571;SDS011;6857;53.484;10.216;2022-09-28T16:01:43;5.53;;;3.83;;
13571;SDS011;6857;53.484;10.216;2022-09-28T16:07:37;4.87;;;3.97;;
13571;SDS011;6857;53.484;10.216;2022-09-28T16:15:00;6.67;;;4.03;;
13571;SDS011;6857;53.484;10.216;2022-09-28T16:17:29;5.10;;;4.13;;
13571;SDS011;6857;53.484;10.216;2022-09-28T16:19:56;7.50;;;4.40;;
13571;SDS011;6857;53.484;10.216;2022-09-28T16:22:22;5.33;;;3.70;;
13571;SDS011;6857;53.484;10.216;2022-09-28T16:24:53;5.17;;;3.93;;
13571;SDS011;6857;53.484;10.216;2022-09-28T16:27:39;4.17;;;3.60;;
13571;SDS011;6857;53.484;10.216;2022-09-28T16:32:38;5.87;;;4.27;;
13571;SDS011;6857;53.484;10.216;2022-09-28T16:35:22;6.77;;;4.20;;
13571;SDS011;6857;53.484;10.216;2022-09-28T16:37:54;6.63;;;4.40;;
13571;SDS011;6857;53.484;10.216;2022-09-28T16:40:21;4.63;;;3.77;;
13571;SDS011;6857;53.484;10.216;2022-09-28T16:42:47;7.03;;;4.33;;
13571;SDS011;6857;53.484;10.216;2022-09-28T16:45:16;6.70;;;4.47;;
13571;SDS011;6857;53.484;10.216;2022-09-28T16:47:43;5.63;;;4.70;;
13571;SDS011;6857;53.484;10.216;2022-09-28T16:50:14;10.83;;;4.63;;
13571;SDS011;6857;53.484;10.216;2022-09-28T16:52:41;7.40;;;4.37;;
13571;SDS011;6857;53.484;10.216;2022-09-28T16:55:26;8.07;;;4.70;;
13571;SDS011;6857;53.484;10.216;2022-09-28T16:57:52;7.13;;;4.93;;
13571;SDS011;6857;53.484;10.216;2022-09-28T17:00:21;11.73;;;7.23;;
13571;SDS011;6857;53.484;10.216;2022-09-28T17:02:48;12.80;;;8.27;;
13571;SDS011;6857;53.484;10.216;2022-09-28T17:05:14;14.37;;;9.03;;
13571;SDS011;6857;53.484;10.216;2022-09-28T17:07:41;11.60;;;8.13;;
13571;SDS011;6857;53.484;10.216;2022-09-28T17:10:11;27.00;;;14.77;;
13571;SDS011;6857;53.484;10.216;2022-09-28T17:12:41;13.33;;;9.23;;
13571;SDS011;6857;53.484;10.216;2022-09-28T17:15:06;14.67;;;9.60;;
13571;SDS011;6857;53.484;10.216;2022-09-28T17:17:32;13.77;;;9.03;;
13571;SDS011;6857;53.484;10.216;2022-09-28T17:19:57;11.80;;;7.87;;
13571;SDS011;6857;53.484;10.216;2022-09-28T17:22:23;8.73;;;6.67;;
13571;SDS011;6857;53.484;10.216;2022-09-28T17:24:49;10.60;;;7.93;;
13571;SDS011;6857;53.484;10.216;2022-09-28T17:27:15;14.53;;;10.47;;
13571;SDS011;6857;53.484;10.216;2022-09-28T17:29:43;16.17;;;10.80;;
13571;SDS011;6857;53.484;10.216;2022-09-28T17:32:16;18.77;;;10.53;;
13571;SDS011;6857;53.484;10.216;2022-09-28T17:34:42;14.07;;;9.80;;
13571;SDS011;6857;53.484;10.216;2022-09-28T17:37:11;18.77;;;12.13;;
13571;SDS011;6857;53.484;10.216;2022-09-28T17:39:38;11.27;;;8.27;;
13571;SDS011;6857;53.484;10.216;2022-09-28T17:42:04;13.57;;;9.87;;
13571;SDS011;6857;53.484;10.216;2022-09-28T17:44:29;13.87;;;9.77;;
13571;SDS011;6857;53.484;10.216;2022-09-28T17:46:55;10.80;;;9.07;;
13571;SDS011;6857;53.484;10.216;2022-09-28T17:49:20;12.07;;;9.60;;
13571;SDS011;6857;53.484;10.216;2022-09-28T17:51:46;12.57;;;9.83;;
13571;SDS011;6857;53.484;10.216;2022-09-28T17:54:12;14.57;;;10.87;;
13571;SDS011;6857;53.484;10.216;2022-09-28T17:56:40;15.70;;;10.20;;
13571;SDS011;6857;53.484;10.216;2022-09-28T17:59:09;13.30;;;9.93;;
13571;SDS011;6857;53.484;10.216;2022-09-28T18:01:37;15.57;;;11.53;;
13571;SDS011;6857;53.484;10.216;2022-09-28T18:04:04;14.90;;;11.60;;